Churchill Airport
CYYQ : now visible

Airfield :











YOU CAN JOIN US ON...

 
LOGIN :

Register | Disclaimer

   EN    FR    IT 

 









Legend :    VFR   Marginal VFR   IFR   Intensive IFR   Very Intensive IFR
Visi :
Ceiling :
>= 8 km
>= 3000ft
5 to 8 km
1000 to 3000 ft
1500m to 5 km
500 to 1000 ft
800 to 1500m
200 to 500 ft
< 800m
< 200 ft
Symbols :   Thunderstorms  Fog  Heavy snow  Heavy precipitations  Wind > 20 kt







- Airport Elevation : 94 ft
- IATA code : YYQ


CYYQ - Churchill

CURRENT METAR :
  • 260427Z 02011KT 8SM -DZ OVC006 10/09 A2977 RMK ST8 SLP085

EXPIRED METARs :
  • 260400Z 03009KT 15SM OVC006 10/10 A2977 RMK ST8 SLP084
  • 260300Z 01008KT 15SM OVC006 10/10 A2976 RMK ST8 SLP080
  • 260240Z 01007KT 15SM OVC006 10/10 A2976 RMK ST8 SLP080
  • 260200Z 01007KT 15SM OVC004 10/10 A2975 RMK ST8 SLP079

TAF TAF CYYQ
Valid from the 26 at 00:00 until the 27 at 00:00 UTC


252338Z 2600/2624 36008KT P6SM FEW004 OVC012
TEMPO 2600/2604 4SM BR BKN004 OVC012
FM260400 04012KT 2SM -DZ BR OVC003
TEMPO 2604/2614 P6SM NSW OVC008
PROB30 2606/2614 1/2SM -DZ FG OVC002
FM261400 04015KT P6SM OVC006
TEMPO 2614/2624 BKN010 BKN160 RMK NXT FCST BY 260600Z
No reported NOTAMs for that airfield.



MET'MAP, your aeronautical weather chart ! - Copyright ORBIFLY December 2007 - Disclaimer

ORBIFLY MET'MAP TEAM :

Programming & Development : Alexandra Zaïnal
Concept & Development : Baudouin d'Aumeries
Co-Development & Prog : Marc-Olivier Méhu
Technical & hardware support : Manuel Goepfert

Contact : metmap@orbifly.com




SOURCES & CREDITS :

   NOAA       Earth
Advisory